Time;durP1;ratioP1;P1;durP2;ratioP2;P2;SDS_P1;SDS_P2;PMS_P1;PMS_P2;Temp;Humidity;BMP_temperature;BMP_pressure;BME280_temperature;BME280_humidity;BME280_pressure;Samples;Min_cycle;Max_cycle;Signal;HPM_P1;HPM_P2
2022/04/20 00:02:40;;;;;;;7.55;4.20;;;;;;;;;;5064728;28;20041;-61
2022/04/20 00:05:06;;;;;;;8.20;4.13;;;;;;;;;;5073233;28;20040;-60
2022/04/20 00:07:33;;;;;;;11.02;3.80;;;;;;;;;;5071798;28;20115;-60
2022/04/20 00:09:59;;;;;;;7.10;3.88;;;;;;;;;;5065030;28;20040;-60
2022/04/20 00:12:26;;;;;;;6.20;4.18;;;;;;;;;;5072511;28;20048;-61
2022/04/20 00:14:52;;;;;;;6.63;4.32;;;;;;;;;;5071558;28;20111;-60
2022/04/20 00:17:18;;;;;;;6.57;3.97;;;;;;;;;;5068300;28;20043;-60
2022/04/20 00:19:44;;;;;;;7.65;4.70;;;;;;;;;;5070406;28;20032;-61
2022/04/20 00:22:10;;;;;;;5.80;4.15;;;;;;;;;;5068882;28;20402;-60
2022/04/20 00:24:36;;;;;;;7.25;4.97;;;;;;;;;;5072827;28;20041;-60
2022/04/20 00:27:02;;;;;;;6.63;4.38;;;;;;;;;;5056020;28;20137;-60
2022/04/20 00:29:28;;;;;;;7.90;4.60;;;;;;;;;;5063135;28;20140;-60
2022/04/20 00:31:54;;;;;;;10.07;5.05;;;;;;;;;;5070610;28;20040;-60
2022/04/20 00:34:21;;;;;;;9.48;5.15;;;;;;;;;;5068922;28;20090;-60
2022/04/20 00:36:50;;;;;;;11.85;5.28;;;;;;;;;;5064280;22;20064;-62
2022/04/20 00:39:17;;;;;;;7.55;4.75;;;;;;;;;;5055781;28;20053;-61
2022/04/20 00:41:43;;;;;;;7.25;4.78;;;;;;;;;;5066475;28;20041;-61
2022/04/20 00:44:09;;;;;;;9.60;4.65;;;;;;;;;;5058611;28;20391;-61
2022/04/20 00:46:35;;;;;;;8.20;4.47;;;;;;;;;;5061706;28;20116;-61
2022/04/20 00:49:02;;;;;;;8.93;4.93;;;;;;;;;;5062933;28;20062;-61
2022/04/20 00:51:30;;;;;;;8.73;5.20;;;;;;;;;;5057035;28;20261;-61
2022/04/20 00:54:00;;;;;;;10.63;4.63;;;;;;;;;;5070709;28;20067;-61
2022/04/20 00:56:26;;;;;;;6.97;5.05;;;;;;;;;;5069152;28;20032;-61
2022/04/20 00:58:53;;;;;;;10.73;5.18;;;;;;;;;;5058966;28;20036;-62
2022/04/20 01:01:19;;;;;;;9.45;5.70;;;;;;;;;;5062895;28;20163;-62
2022/04/20 01:03:45;;;;;;;9.93;4.93;;;;;;;;;;5069026;28;20041;-61
2022/04/20 01:06:11;;;;;;;8.35;5.45;;;;;;;;;;5081599;28;20047;-61
2022/04/20 01:08:37;;;;;;;8.52;5.13;;;;;;;;;;5066568;28;20410;-61
2022/04/20 01:11:03;;;;;;;9.05;5.50;;;;;;;;;;5070042;28;20513;-61
2022/04/20 01:13:29;;;;;;;8.80;5.28;;;;;;;;;;5053658;28;20037;-62
2022/04/20 01:15:55;;;;;;;8.43;5.68;;;;;;;;;;5071125;28;20032;-62
2022/04/20 01:18:21;;;;;;;10.02;5.68;;;;;;;;;;5066058;28;20399;-61
2022/04/20 01:20:47;;;;;;;9.00;5.00;;;;;;;;;;5076769;28;20436;-61
2022/04/20 01:23:13;;;;;;;8.52;5.55;;;;;;;;;;5064659;28;20041;-61
2022/04/20 01:25:40;;;;;;;8.98;5.18;;;;;;;;;;5070533;28;20394;-62
2022/04/20 01:28:06;;;;;;;8.68;5.60;;;;;;;;;;5065611;28;20109;-61
2022/04/20 01:30:32;;;;;;;11.88;5.22;;;;;;;;;;5070512;28;20037;-61
2022/04/20 01:33:00;;;;;;;8.00;5.28;;;;;;;;;;5061555;28;20053;-61
2022/04/20 01:35:26;;;;;;;10.38;5.78;;;;;;;;;;5061549;28;20040;-62
2022/04/20 01:37:52;;;;;;;8.15;5.47;;;;;;;;;;5064275;28;20498;-61
2022/04/20 01:40:18;;;;;;;8.02;5.32;;;;;;;;;;5063960;28;20129;-62
2022/04/20 01:42:44;;;;;;;8.57;5.53;;;;;;;;;;5059752;28;20037;-61
2022/04/20 01:45:10;;;;;;;9.35;6.32;;;;;;;;;;5057497;28;20043;-62
2022/04/20 01:47:37;;;;;;;9.18;5.75;;;;;;;;;;5068958;28;20043;-61
2022/04/20 01:50:03;;;;;;;8.13;5.53;;;;;;;;;;5070861;28;20052;-61
2022/04/20 01:52:29;;;;;;;9.82;5.28;;;;;;;;;;5061367;28;20039;-61
2022/04/20 01:54:55;;;;;;;8.68;5.57;;;;;;;;;;5064793;28;20032;-61
2022/04/20 01:57:21;;;;;;;9.32;5.53;;;;;;;;;;5067384;28;20036;-61
2022/04/20 01:59:47;;;;;;;10.55;6.05;;;;;;;;;;5060185;28;20120;-61
2022/04/20 02:04:58;;;;;;;8.65;5.80;;;;;;;;;;5058305;28;20040;-61
2022/04/20 02:07:23;;;;;;;9.30;5.78;;;;;;;;;;5061612;28;20040;-61
2022/04/20 02:09:49;;;;;;;14.57;6.35;;;;;;;;;;5066611;28;20028;-61
2022/04/20 02:12:15;;;;;;;10.65;6.07;;;;;;;;;;5065651;28;20112;-61
2022/04/20 02:14:41;;;;;;;9.48;6.05;;;;;;;;;;5070629;28;20048;-62
2022/04/20 02:17:07;;;;;;;8.55;6.00;;;;;;;;;;5066681;28;20111;-61
2022/04/20 02:19:33;;;;;;;10.75;6.38;;;;;;;;;;5055017;28;20062;-61
2022/04/20 02:21:59;;;;;;;8.70;5.65;;;;;;;;;;5050010;28;20539;-62
2022/04/20 02:24:25;;;;;;;8.85;5.70;;;;;;;;;;5062939;28;20135;-61
2022/04/20 02:26:51;;;;;;;10.75;5.60;;;;;;;;;;5056444;28;20119;-61
2022/04/20 02:29:18;;;;;;;10.85;5.97;;;;;;;;;;5067840;28;20051;-61
2022/04/20 02:31:44;;;;;;;12.55;6.20;;;;;;;;;;5076168;28;20044;-61
2022/04/20 02:34:10;;;;;;;9.15;5.93;;;;;;;;;;5067417;28;20041;-61
2022/04/20 02:36:36;;;;;;;12.63;5.90;;;;;;;;;;5064061;28;20033;-61
2022/04/20 02:39:04;;;;;;;8.63;5.32;;;;;;;;;;5059209;28;20041;-62
2022/04/20 02:41:30;;;;;;;9.30;5.88;;;;;;;;;;5065273;28;20123;-62
2022/04/20 02:43:56;;;;;;;8.68;5.53;;;;;;;;;;5060213;28;20043;-61
2022/04/20 02:46:23;;;;;;;10.95;5.50;;;;;;;;;;5061100;28;20044;-61
2022/04/20 02:48:50;;;;;;;10.65;5.60;;;;;;;;;;5064726;28;20116;-61
2022/04/20 02:51:16;;;;;;;8.48;5.65;;;;;;;;;;5074835;28;20040;-61
2022/04/20 02:53:42;;;;;;;9.52;6.13;;;;;;;;;;5070854;28;20048;-61
2022/04/20 02:56:08;;;;;;;8.70;5.32;;;;;;;;;;5045926;28;20048;-61
2022/04/20 02:58:34;;;;;;;10.20;5.88;;;;;;;;;;5072251;28;20040;-61
2022/04/20 03:01:00;;;;;;;11.05;6.20;;;;;;;;;;5051605;28;20037;-61
2022/04/20 03:03:26;;;;;;;8.98;5.90;;;;;;;;;;5074601;28;20050;-62
2022/04/20 03:05:53;;;;;;;9.60;6.05;;;;;;;;;;5068599;28;20494;-61
2022/04/20 03:08:19;;;;;;;12.18;6.30;;;;;;;;;;5074175;28;20048;-61
2022/04/20 03:10:45;;;;;;;8.20;5.72;;;;;;;;;;5073636;28;20120;-61
2022/04/20 03:13:11;;;;;;;8.55;5.50;;;;;;;;;;5064058;28;20047;-61
2022/04/20 03:15:37;;;;;;;12.45;6.47;;;;;;;;;;5071123;28;20041;-61
2022/04/20 03:18:03;;;;;;;11.25;6.07;;;;;;;;;;5073410;28;20505;-61
2022/04/20 03:20:29;;;;;;;11.77;6.60;;;;;;;;;;5072666;28;20028;-62
2022/04/20 03:22:55;;;;;;;8.05;5.50;;;;;;;;;;5073770;28;20056;-62
2022/04/20 03:25:21;;;;;;;9.68;5.70;;;;;;;;;;5066411;28;20044;-61
2022/04/20 03:27:47;;;;;;;12.07;5.72;;;;;;;;;;5066318;28;20048;-61
2022/04/20 03:30:14;;;;;;;9.45;5.80;;;;;;;;;;5074160;28;20167;-61
2022/04/20 03:32:40;;;;;;;9.88;5.97;;;;;;;;;;5069251;28;20608;-61
2022/04/20 03:35:06;;;;;;;9.68;5.75;;;;;;;;;;5068792;28;20032;-61
2022/04/20 03:37:32;;;;;;;9.00;5.93;;;;;;;;;;5066096;28;20032;-62
2022/04/20 03:39:59;;;;;;;9.88;6.13;;;;;;;;;;5063976;28;20045;-61
2022/04/20 03:42:26;;;;;;;8.95;5.63;;;;;;;;;;5071919;28;20146;-61
2022/04/20 03:44:51;;;;;;;10.55;5.60;;;;;;;;;;5071763;28;20041;-61
2022/04/20 03:47:17;;;;;;;11.32;6.57;;;;;;;;;;5069657;28;20045;-61
2022/04/20 03:49:43;;;;;;;8.32;6.15;;;;;;;;;;5062666;28;20032;-61
2022/04/20 03:52:09;;;;;;;12.25;6.68;;;;;;;;;;5063822;28;20106;-62
2022/04/20 03:54:36;;;;;;;9.80;6.13;;;;;;;;;;5042602;28;20645;-61
2022/04/20 03:57:07;;;;;;;10.48;5.88;;;;;;;;;;5062987;28;20060;-61
2022/04/20 03:59:33;;;;;;;8.93;5.63;;;;;;;;;;5066679;28;20041;-61
2022/04/20 04:02:00;;;;;;;9.85;5.82;;;;;;;;;;5071849;28;20035;-61
2022/04/20 04:04:26;;;;;;;8.55;5.63;;;;;;;;;;5093261;28;20051;-61
2022/04/20 04:06:52;;;;;;;10.35;5.90;;;;;;;;;;5039401;28;20044;-61
2022/04/20 04:09:18;;;;;;;11.65;7.13;;;;;;;;;;5057905;28;20053;-62
2022/04/20 04:11:44;;;;;;;8.63;6.35;;;;;;;;;;5059067;28;20039;-61
2022/04/20 04:14:10;;;;;;;11.07;6.70;;;;;;;;;;5071529;28;20649;-61
2022/04/20 04:16:36;;;;;;;10.25;6.32;;;;;;;;;;5065027;28;20040;-61
2022/04/20 04:19:03;;;;;;;10.57;6.53;;;;;;;;;;5064356;28;20040;-61
2022/04/20 04:21:30;;;;;;;10.15;6.80;;;;;;;;;;5061237;28;20028;-61
2022/04/20 04:23:55;;;;;;;10.93;6.80;;;;;;;;;;5068108;28;20059;-61
2022/04/20 04:26:22;;;;;;;10.05;6.28;;;;;;;;;;5066278;28;20036;-61
2022/04/20 04:28:48;;;;;;;10.45;6.25;;;;;;;;;;5062291;28;20090;-61
2022/04/20 04:31:14;;;;;;;11.88;6.38;;;;;;;;;;5064968;28;20040;-61
2022/04/20 04:33:40;;;;;;;11.27;6.68;;;;;;;;;;5069229;28;20047;-61
2022/04/20 04:36:07;;;;;;;11.90;6.85;;;;;;;;;;5053271;28;20032;-61
2022/04/20 04:38:33;;;;;;;12.45;6.95;;;;;;;;;;5068979;28;20461;-61
2022/04/20 04:40:59;;;;;;;10.85;7.00;;;;;;;;;;5066435;28;20040;-61
2022/04/20 04:43:25;;;;;;;10.60;7.05;;;;;;;;;;5068076;28;20426;-61
2022/04/20 04:48:36;;;;;;;11.23;6.55;;;;;;;;;;5059757;28;20040;-61
2022/04/20 04:51:06;;;;;;;11.85;7.07;;;;;;;;;;5067085;28;20095;-61
2022/04/20 04:53:32;;;;;;;12.93;6.88;;;;;;;;;;5058749;28;20039;-61
2022/04/20 04:55:58;;;;;;;12.63;6.88;;;;;;;;;;5064247;28;20033;-61
2022/04/20 04:58:24;;;;;;;10.82;6.45;;;;;;;;;;5059957;28;20449;-61
2022/04/20 05:00:50;;;;;;;9.45;6.35;;;;;;;;;;5059933;28;20060;-61
2022/04/20 05:03:17;;;;;;;17.75;6.90;;;;;;;;;;5062405;28;20040;-61
2022/04/20 05:05:52;;;;;;;14.60;7.20;;;;;;;;;;5061596;28;20047;-61
2022/04/20 05:08:18;;;;;;;13.65;6.45;;;;;;;;;;5059683;28;20399;-61
2022/04/20 05:10:44;;;;;;;46.53;8.00;;;;;;;;;;5056564;28;20040;-61
2022/04/20 05:13:10;;;;;;;16.85;6.90;;;;;;;;;;5063185;28;20427;-61
2022/04/20 05:15:36;;;;;;;13.27;7.30;;;;;;;;;;5059620;28;20120;-61
2022/04/20 05:18:02;;;;;;;13.95;7.22;;;;;;;;;;5055853;28;20401;-61
2022/04/20 05:20:28;;;;;;;18.55;7.30;;;;;;;;;;5059096;28;20703;-61
2022/04/20 05:22:55;;;;;;;22.73;7.93;;;;;;;;;;5056202;28;20075;-61
2022/04/20 05:25:21;;;;;;;14.48;7.40;;;;;;;;;;5053655;28;20028;-61
2022/04/20 05:27:47;;;;;;;16.00;6.78;;;;;;;;;;5055812;28;20778;-61
2022/04/20 05:30:14;;;;;;;27.67;9.40;;;;;;;;;;5063855;28;20036;-62
2022/04/20 05:32:40;;;;;;;20.65;7.30;;;;;;;;;;5059490;28;20064;-62
2022/04/20 05:35:07;;;;;;;12.75;7.15;;;;;;;;;;5061390;28;20056;-61
2022/04/20 05:43:03;;;;;;;23.45;7.60;;;;;;;;;;5065322;28;20501;-62
2022/04/20 05:45:29;;;;;;;16.42;7.40;;;;;;;;;;5062848;28;20064;-62
2022/04/20 05:47:58;;;;;;;28.27;7.97;;;;;;;;;;5069608;28;20036;-61
2022/04/20 05:50:24;;;;;;;38.83;8.65;;;;;;;;;;5066121;28;20120;-61
2022/04/20 05:52:49;;;;;;;22.30;8.02;;;;;;;;;;5051753;28;20111;-62
2022/04/20 05:55:15;;;;;;;8.93;7.18;;;;;;;;;;5056119;28;20546;-62
2022/04/20 05:57:42;;;;;;;13.85;7.93;;;;;;;;;;5067436;28;20044;-62
2022/04/20 06:00:08;;;;;;;11.50;6.75;;;;;;;;;;5066623;28;20098;-62
2022/04/20 06:02:34;;;;;;;11.80;7.18;;;;;;;;;;5068224;28;20245;-61
2022/04/20 06:05:00;;;;;;;9.80;6.40;;;;;;;;;;5065325;28;20037;-61
2022/04/20 06:07:27;;;;;;;11.68;7.03;;;;;;;;;;5072606;28;20047;-62
2022/04/20 06:09:53;;;;;;;10.13;6.90;;;;;;;;;;5066341;28;20474;-62
2022/04/20 06:12:20;;;;;;;17.45;6.75;;;;;;;;;;5063862;28;20080;-62
2022/04/20 06:14:46;;;;;;;10.13;6.10;;;;;;;;;;5065557;28;20119;-62
2022/04/20 06:17:13;;;;;;;9.65;5.97;;;;;;;;;;5069441;28;20745;-62
2022/04/20 06:19:38;;;;;;;11.75;5.97;;;;;;;;;;5059502;28;20040;-62
2022/04/20 06:22:04;;;;;;;10.65;6.03;;;;;;;;;;5061065;28;20032;-62
2022/04/20 06:24:31;;;;;;;11.63;6.25;;;;;;;;;;5061443;28;20040;-62
2022/04/20 06:26:57;;;;;;;12.38;6.72;;;;;;;;;;5070223;28;20036;-62
2022/04/20 06:29:23;;;;;;;11.38;6.22;;;;;;;;;;5060864;28;20490;-62
2022/04/20 06:31:49;;;;;;;10.68;6.80;;;;;;;;;;5077429;28;20040;-62
2022/04/20 06:34:15;;;;;;;15.10;6.60;;;;;;;;;;5078117;28;20049;-62
2022/04/20 06:36:41;;;;;;;11.02;6.75;;;;;;;;;;5098384;22;20059;-61
2022/04/20 06:39:07;;;;;;;9.32;6.20;;;;;;;;;;5062213;28;20610;-61
2022/04/20 06:41:33;;;;;;;11.07;6.72;;;;;;;;;;5072888;28;20075;-61
2022/04/20 06:43:59;;;;;;;8.05;5.40;;;;;;;;;;5079182;28;20040;-61
2022/04/20 06:46:25;;;;;;;11.35;6.32;;;;;;;;;;5076594;28;20412;-61
2022/04/20 06:48:51;;;;;;;8.48;6.15;;;;;;;;;;5066237;28;20085;-60
2022/04/20 06:51:17;;;;;;;8.85;6.25;;;;;;;;;;5064052;28;20044;-60
2022/04/20 06:59:24;;;;;;;8.98;5.63;;;;;;;;;;5034457;28;20046;-60
2022/04/20 07:01:51;;;;;;;10.65;6.35;;;;;;;;;;5067659;28;20048;-60
2022/04/20 07:04:17;;;;;;;22.02;6.90;;;;;;;;;;5067441;28;20110;-60
2022/04/20 07:06:43;;;;;;;9.40;6.38;;;;;;;;;;5058369;28;20033;-60
2022/04/20 07:09:09;;;;;;;8.38;6.32;;;;;;;;;;5059828;28;20051;-60
2022/04/20 07:11:35;;;;;;;9.40;5.80;;;;;;;;;;5060104;28;20032;-61
2022/04/20 07:14:01;;;;;;;9.93;5.45;;;;;;;;;;5063897;28;20037;-61
2022/04/20 07:16:28;;;;;;;13.35;5.93;;;;;;;;;;5068610;28;20043;-61
2022/04/20 07:18:54;;;;;;;8.32;5.88;;;;;;;;;;5063140;28;20410;-61
2022/04/20 07:21:20;;;;;;;10.23;5.20;;;;;;;;;;5062286;28;20048;-61
2022/04/20 07:23:46;;;;;;;7.60;5.30;;;;;;;;;;5058145;28;20067;-61
2022/04/20 07:26:13;;;;;;;7.78;5.43;;;;;;;;;;5060353;28;20494;-60
2022/04/20 07:28:39;;;;;;;8.35;5.22;;;;;;;;;;5065110;28;20048;-61
2022/04/20 07:31:05;;;;;;;7.53;5.45;;;;;;;;;;5068492;28;20093;-61
2022/04/20 07:33:31;;;;;;;9.30;5.90;;;;;;;;;;5063420;28;20443;-60
2022/04/20 07:35:57;;;;;;;8.43;4.15;;;;;;;;;;5075120;28;20093;-61
2022/04/20 07:38:25;;;;;;;10.13;5.10;;;;;;;;;;5098371;27;20073;-60
2022/04/20 07:40:51;;;;;;;6.70;4.40;;;;;;;;;;5086215;28;20395;-61
2022/04/20 07:43:17;;;;;;;8.38;4.60;;;;;;;;;;5111425;27;20097;-60
2022/04/20 07:45:43;;;;;;;10.23;4.68;;;;;;;;;;5116555;27;20039;-60
2022/04/20 07:48:09;;;;;;;42.95;7.80;;;;;;;;;;5092594;27;20473;-60
2022/04/20 07:50:36;;;;;;;6.63;4.30;;;;;;;;;;5110249;27;20110;-60
2022/04/20 07:53:04;;;;;;;6.28;4.40;;;;;;;;;;5096596;28;20044;-60
2022/04/20 07:55:34;;;;;;;6.75;4.47;;;;;;;;;;5119059;27;20527;-60
2022/04/20 07:58:00;;;;;;;8.52;4.32;;;;;;;;;;5116506;27;20045;-60
2022/04/20 08:00:27;;;;;;;6.05;4.63;;;;;;;;;;5113547;27;20031;-60
2022/04/20 08:03:12;;;;;;;7.07;4.28;;;;;;;;;;5104090;27;20469;-60
2022/04/20 08:05:38;;;;;;;10.18;4.53;;;;;;;;;;5096866;28;20027;-59
2022/04/20 08:08:04;;;;;;;6.80;3.55;;;;;;;;;;5098235;28;20068;-60
2022/04/20 08:10:31;;;;;;;5.70;3.90;;;;;;;;;;5109955;27;20043;-60
2022/04/20 08:12:57;;;;;;;9.00;3.95;;;;;;;;;;5109499;27;20039;-60
2022/04/20 08:15:23;;;;;;;13.35;4.40;;;;;;;;;;5096323;28;20042;-60
2022/04/20 08:17:49;;;;;;;5.97;4.20;;;;;;;;;;5107427;27;20293;-59
2022/04/20 08:20:15;;;;;;;6.25;3.28;;;;;;;;;;5109689;27;20043;-60
2022/04/20 08:22:42;;;;;;;6.13;3.50;;;;;;;;;;5097170;27;20080;-59
2022/04/20 08:25:12;;;;;;;5.07;3.40;;;;;;;;;;5104135;28;20046;-59
2022/04/20 08:27:38;;;;;;;6.18;3.50;;;;;;;;;;5113201;27;20161;-59
2022/04/20 08:30:05;;;;;;;6.00;3.70;;;;;;;;;;5111358;27;20031;-59
2022/04/20 08:32:31;;;;;;;5.97;3.28;;;;;;;;;;5124471;27;20039;-60
2022/04/20 08:34:57;;;;;;;5.25;3.65;;;;;;;;;;5119287;27;20035;-59
2022/04/20 08:37:23;;;;;;;7.97;3.30;;;;;;;;;;5120111;27;20401;-60
2022/04/20 08:39:49;;;;;;;5.53;3.20;;;;;;;;;;5112779;27;20035;-59
2022/04/20 08:42:17;;;;;;;4.00;3.50;;;;;;;;;;5103722;28;20441;-60
2022/04/20 08:44:46;;;;;;;5.20;3.60;;;;;;;;;;5096369;27;20063;-60
2022/04/20 08:47:17;;;;;;;9.23;3.70;;;;;;;;;;5133672;27;20076;-61
2022/04/20 08:49:43;;;;;;;;;;;;;;;;;;5101305;27;20050;-61
2022/04/20 08:54:56;;;;;;;4.88;3.60;;;;;;;;;;5107391;27;20043;-61
2022/04/20 08:57:26;;;;;;;4.03;3.00;;;;;;;;;;5127501;27;21430;-61
2022/04/20 08:59:52;;;;;;;5.25;3.38;;;;;;;;;;5102599;27;20040;-60
2022/04/20 09:02:19;;;;;;;5.72;2.85;;;;;;;;;;5109246;27;20040;-61
2022/04/20 09:04:45;;;;;;;6.25;3.08;;;;;;;;;;5111179;27;20043;-61
2022/04/20 09:07:14;;;;;;;4.53;3.05;;;;;;;;;;5112675;27;20505;-61
2022/04/20 09:09:40;;;;;;;5.63;3.30;;;;;;;;;;5124352;27;20046;-61
2022/04/20 09:12:25;;;;;;;4.13;3.20;;;;;;;;;;5118899;27;20374;-60
2022/04/20 09:14:52;;;;;;;4.93;3.10;;;;;;;;;;5111980;28;20078;-60
2022/04/20 09:17:19;;;;;;;5.03;3.33;;;;;;;;;;5112520;28;20035;-60
2022/04/20 09:19:46;;;;;;;3.97;3.10;;;;;;;;;;5106905;28;20047;-60
2022/04/20 09:22:20;;;;;;;4.50;3.08;;;;;;;;;;5109560;27;20032;-61
2022/04/20 09:24:59;;;;;;;4.43;2.38;;;;;;;;;;5113605;27;20115;-60
2022/04/20 09:27:28;;;;;;;3.60;2.67;;;;;;;;;;5117756;27;20403;-61
2022/04/20 09:29:55;;;;;;;6.13;2.80;;;;;;;;;;5103442;28;20064;-61
2022/04/20 09:32:35;;;;;;;4.97;2.58;;;;;;;;;;5107750;27;20046;-61
2022/04/20 09:35:03;;;;;;;4.50;3.20;;;;;;;;;;5099910;28;20546;-61
2022/04/20 09:37:30;;;;;;;5.15;3.08;;;;;;;;;;5105328;27;20047;-60
2022/04/20 09:39:57;;;;;;;4.93;2.70;;;;;;;;;;5073995;28;20492;-61
2022/04/20 09:42:24;;;;;;;4.75;3.40;;;;;;;;;;5091124;28;20101;-60
2022/04/20 09:44:54;;;;;;;5.13;2.85;;;;;;;;;;5114166;27;20054;-60
2022/04/20 09:50:09;;;;;;;4.47;2.92;;;;;;;;;;5117828;27;20082;-61
2022/04/20 09:52:42;;;;;;;4.72;2.70;;;;;;;;;;5112035;27;20033;-60
2022/04/20 09:55:11;;;;;;;4.85;2.63;;;;;;;;;;5105802;27;20118;-60
2022/04/20 09:57:37;;;;;;;4.82;2.80;;;;;;;;;;5092783;28;20044;-60
2022/04/20 10:00:03;;;;;;;5.00;2.60;;;;;;;;;;5091413;28;20043;-61
2022/04/20 10:02:30;;;;;;;5.28;2.15;;;;;;;;;;5102821;27;20050;-61
2022/04/20 10:04:57;;;;;;;4.68;2.72;;;;;;;;;;5101540;28;20114;-61
2022/04/20 10:07:23;;;;;;;7.68;2.72;;;;;;;;;;5092191;27;20053;-61
2022/04/20 10:09:49;;;;;;;4.63;2.70;;;;;;;;;;5078132;28;20750;-61
2022/04/20 10:12:16;;;;;;;15.63;3.60;;;;;;;;;;5112165;28;20050;-61
2022/04/20 10:17:37;;;;;;;6.07;3.20;;;;;;;;;;5108027;28;20122;-61
2022/04/20 10:20:04;;;;;;;5.75;2.72;;;;;;;;;;5091893;28;20036;-61
2022/04/20 10:22:31;;;;;;;6.00;3.15;;;;;;;;;;5091291;28;20051;-61
2022/04/20 10:24:59;;;;;;;4.68;2.90;;;;;;;;;;5091917;28;20124;-60
2022/04/20 10:27:30;;;;;;;4.15;2.70;;;;;;;;;;5090941;28;20532;-61
2022/04/20 10:29:58;;;;;;;6.05;3.38;;;;;;;;;;5097288;28;20127;-61
2022/04/20 10:32:25;;;;;;;6.10;3.00;;;;;;;;;;5105836;28;20039;-61
2022/04/20 10:34:52;;;;;;;5.22;2.90;;;;;;;;;;5105996;28;20531;-61
2022/04/20 10:37:20;;;;;;;5.25;2.80;;;;;;;;;;5117690;27;20036;-61
2022/04/20 10:39:47;;;;;;;5.47;3.63;;;;;;;;;;5109772;28;20046;-60
2022/04/20 10:42:17;;;;;;;5.82;2.95;;;;;;;;;;5111419;28;20040;-60
2022/04/20 10:45:03;;;;;;;7.20;2.78;;;;;;;;;;5103762;28;20400;-61
2022/04/20 10:47:30;;;;;;;4.50;2.42;;;;;;;;;;5100084;28;20114;-61
2022/04/20 10:50:20;;;;;;;3.60;2.83;;;;;;;;;;5102360;28;20481;-61
2022/04/20 10:52:48;;;;;;;8.20;2.95;;;;;;;;;;5103862;28;20048;-61
2022/04/20 10:55:14;;;;;;;4.78;2.60;;;;;;;;;;5097168;28;20048;-61
2022/04/20 10:57:41;;;;;;;4.13;2.50;;;;;;;;;;5082507;28;20039;-61
2022/04/20 11:00:26;;;;;;;5.07;2.38;;;;;;;;;;5107021;28;20497;-61
2022/04/20 11:02:53;;;;;;;6.85;2.78;;;;;;;;;;5109558;28;20040;-61
2022/04/20 11:05:20;;;;;;;4.32;2.45;;;;;;;;;;5078891;28;20131;-61
2022/04/20 11:08:05;;;;;;;4.50;2.53;;;;;;;;;;5080778;28;20048;-61
2022/04/20 11:10:32;;;;;;;3.35;2.15;;;;;;;;;;5112126;28;20085;-61
2022/04/20 11:19:03;;;;;;;7.18;2.63;;;;;;;;;;5124335;27;20072;-60
2022/04/20 11:21:29;;;;;;;;;;;;;;;;;;5104486;27;20035;-60
2022/04/20 11:23:59;;;;;;;5.47;2.45;;;;;;;;;;5123165;27;19968;-61
2022/04/20 11:26:29;;;;;;;113.85;10.48;;;;;;;;;;5112695;27;20039;-61
2022/04/20 11:28:56;;;;;;;4.32;2.55;;;;;;;;;;5118760;27;20042;-61
2022/04/20 11:31:23;;;;;;;3.10;2.00;;;;;;;;;;5116682;27;20656;-61
2022/04/20 11:33:50;;;;;;;4.78;2.20;;;;;;;;;;5124499;27;20114;-61
2022/04/20 11:36:16;;;;;;;2.90;1.98;;;;;;;;;;5099971;27;20539;-61
2022/04/20 11:38:43;;;;;;;4.18;2.20;;;;;;;;;;5093811;28;20071;-61
2022/04/20 11:41:12;;;;;;;2.63;1.92;;;;;;;;;;5108847;27;20039;-61
2022/04/20 11:43:38;;;;;;;4.05;1.80;;;;;;;;;;5119360;27;20101;-61
2022/04/20 11:46:05;;;;;;;3.53;1.73;;;;;;;;;;5132211;27;20046;-60
2022/04/20 11:48:38;;;;;;;8.85;2.30;;;;;;;;;;5104851;27;20044;-61
2022/04/20 11:51:08;;;;;;;4.25;2.42;;;;;;;;;;5109222;27;20063;-61
2022/04/20 11:53:35;;;;;;;4.70;2.30;;;;;;;;;;5129461;27;20082;-60
2022/04/20 11:56:02;;;;;;;5.07;2.00;;;;;;;;;;5113985;27;20489;-61
2022/04/20 11:58:28;;;;;;;4.45;2.25;;;;;;;;;;5092766;28;20443;-61
2022/04/20 12:01:07;;;;;;;2.70;1.83;;;;;;;;;;5093863;28;20619;-61
2022/04/20 12:03:37;;;;;;;3.60;2.22;;;;;;;;;;5093489;28;20043;-60
2022/04/20 12:06:04;;;;;;;4.17;2.17;;;;;;;;;;5094205;28;20040;-60
2022/04/20 12:08:34;;;;;;;5.90;1.92;;;;;;;;;;5097744;28;20043;-61
2022/04/20 12:11:08;;;;;;;3.03;2.00;;;;;;;;;;5083438;28;20043;-61
2022/04/20 12:13:34;;;;;;;2.55;2.03;;;;;;;;;;5107230;27;20421;-61
2022/04/20 12:16:04;;;;;;;3.58;2.25;;;;;;;;;;5113546;28;20118;-61
2022/04/20 12:18:31;;;;;;;4.80;2.20;;;;;;;;;;5108243;28;20032;-61
2022/04/20 12:20:59;;;;;;;4.07;1.98;;;;;;;;;;5095893;28;20104;-60
2022/04/20 12:23:32;;;;;;;3.50;3.03;;;;;;;;;;5095302;28;20039;-60
2022/04/20 12:26:01;;;;;;;3.47;2.00;;;;;;;;;;5103169;28;20413;-61
2022/04/20 12:28:36;;;;;;;4.25;2.35;;;;;;;;;;5099043;27;20044;-60
2022/04/20 12:31:03;;;;;;;3.65;2.25;;;;;;;;;;5095468;27;20040;-61
2022/04/20 12:33:30;;;;;;;3.05;2.03;;;;;;;;;;5119601;27;20535;-61
2022/04/20 12:36:05;;;;;;;4.75;2.88;;;;;;;;;;5121752;27;20043;-61
2022/04/20 12:38:41;;;;;;;6.10;2.50;;;;;;;;;;5121859;22;20505;-62
2022/04/20 12:41:07;;;;;;;3.22;2.30;;;;;;;;;;5105872;28;20484;-62
2022/04/20 12:43:33;;;;;;;4.03;2.70;;;;;;;;;;5108070;28;20042;-62
2022/04/20 12:46:14;;;;;;;7.25;2.72;;;;;;;;;;5108795;28;20063;-62
2022/04/20 12:48:43;;;;;;;4.43;2.67;;;;;;;;;;5100410;28;20034;-62
2022/04/20 12:51:27;;;;;;;5.50;3.30;;;;;;;;;;5110650;28;20039;-62
2022/04/20 12:53:55;;;;;;;5.25;3.10;;;;;;;;;;5107113;28;20318;-62
2022/04/20 13:02:03;;;;;;;3.47;2.55;;;;;;;;;;5106167;27;20051;-61
2022/04/20 13:04:30;;;;;;;5.40;3.35;;;;;;;;;;5107470;28;20044;-62
2022/04/20 13:06:56;;;;;;;5.93;3.95;;;;;;;;;;5105068;28;20039;-62
2022/04/20 13:09:22;;;;;;;6.47;3.67;;;;;;;;;;5109251;28;20119;-61
2022/04/20 13:11:48;;;;;;;6.43;3.45;;;;;;;;;;5110416;28;20088;-61
2022/04/20 13:14:14;;;;;;;3.72;2.97;;;;;;;;;;5110357;28;20036;-62
2022/04/20 13:16:40;;;;;;;4.63;3.33;;;;;;;;;;5108651;28;20588;-62
2022/04/20 13:19:06;;;;;;;4.22;3.25;;;;;;;;;;5103911;28;20687;-62
2022/04/20 13:21:32;;;;;;;9.52;3.80;;;;;;;;;;5102547;28;20036;-62
2022/04/20 13:23:59;;;;;;;4.80;3.63;;;;;;;;;;5110317;28;20089;-62
2022/04/20 13:29:12;;;;;;;6.90;3.55;;;;;;;;;;5110795;28;20039;-61
2022/04/20 13:31:38;;;;;;;8.65;4.07;;;;;;;;;;5109971;28;20036;-61
2022/04/20 13:34:04;;;;;;;7.10;4.28;;;;;;;;;;5112000;28;20075;-61
2022/04/20 13:36:30;;;;;;;6.95;3.80;;;;;;;;;;5111797;28;20544;-61
2022/04/20 13:38:57;;;;;;;5.50;4.18;;;;;;;;;;5102976;28;20032;-61
2022/04/20 13:41:23;;;;;;;5.93;3.95;;;;;;;;;;5108293;28;20048;-61
2022/04/20 13:43:49;;;;;;;5.65;4.00;;;;;;;;;;5107699;28;20100;-62
2022/04/20 13:46:15;;;;;;;7.05;4.13;;;;;;;;;;5109943;28;20492;-61
2022/04/20 13:48:41;;;;;;;5.50;4.10;;;;;;;;;;5094089;28;20068;-61
2022/04/20 13:51:07;;;;;;;11.07;4.57;;;;;;;;;;5110401;28;20038;-62
2022/04/20 13:53:33;;;;;;;14.98;4.75;;;;;;;;;;5108399;28;20046;-62
2022/04/20 13:56:20;;;;;;;5.18;3.95;;;;;;;;;;5103876;28;20032;-62
2022/04/20 13:58:47;;;;;;;13.90;4.47;;;;;;;;;;5110510;28;20036;-62
2022/04/20 14:01:13;;;;;;;8.00;4.88;;;;;;;;;;5112146;28;20071;-62
2022/04/20 14:03:39;;;;;;;8.57;4.63;;;;;;;;;;5108689;28;20063;-62
2022/04/20 14:06:05;;;;;;;5.32;3.90;;;;;;;;;;5111915;28;20039;-62
2022/04/20 14:08:31;;;;;;;7.70;4.03;;;;;;;;;;5109475;28;20043;-62
2022/04/20 14:11:00;;;;;;;5.63;4.00;;;;;;;;;;5108428;28;20067;-61
2022/04/20 14:13:26;;;;;;;4.85;3.88;;;;;;;;;;5107838;28;20040;-62
2022/04/20 14:15:52;;;;;;;7.55;4.10;;;;;;;;;;5103483;28;20046;-61
2022/04/20 14:18:18;;;;;;;10.57;4.03;;;;;;;;;;5101464;28;20035;-61
2022/04/20 14:20:44;;;;;;;6.72;4.00;;;;;;;;;;5109248;28;20573;-61
2022/04/20 14:23:10;;;;;;;6.00;3.95;;;;;;;;;;5119271;28;20046;-62
2022/04/20 14:33:50;;;;;;;7.35;4.55;;;;;;;;;;5111018;28;20044;-61
2022/04/20 14:36:16;;;;;;;5.68;4.13;;;;;;;;;;5099986;28;20096;-60
2022/04/20 14:38:42;;;;;;;7.18;4.60;;;;;;;;;;5107573;28;20036;-61
2022/04/20 14:41:08;;;;;;;7.72;4.13;;;;;;;;;;5100680;28;20032;-60
2022/04/20 14:43:34;;;;;;;6.13;4.47;;;;;;;;;;5102852;28;20505;-61
2022/04/20 14:46:00;;;;;;;8.68;4.70;;;;;;;;;;5105038;28;20027;-61
2022/04/20 14:48:26;;;;;;;5.38;3.75;;;;;;;;;;5108758;28;20071;-62
2022/04/20 14:50:52;;;;;;;7.60;3.85;;;;;;;;;;5103554;28;20031;-59
2022/04/20 14:53:18;;;;;;;6.63;4.07;;;;;;;;;;5109523;28;20088;-60
2022/04/20 14:55:44;;;;;;;5.45;3.85;;;;;;;;;;5107735;28;20089;-60
2022/04/20 14:58:10;;;;;;;4.88;3.55;;;;;;;;;;5111019;28;20081;-60
2022/04/20 15:00:38;;;;;;;9.43;4.20;;;;;;;;;;5099403;28;20497;-62
2022/04/20 15:03:05;;;;;;;5.40;4.07;;;;;;;;;;5108820;27;20108;-61
2022/04/20 15:05:31;;;;;;;6.32;4.05;;;;;;;;;;5108287;28;20179;-61
2022/04/20 15:07:58;;;;;;;8.50;4.82;;;;;;;;;;5109211;28;20047;-62
2022/04/20 15:10:24;;;;;;;5.57;4.38;;;;;;;;;;5110888;28;20489;-62
2022/04/20 15:12:52;;;;;;;6.57;4.22;;;;;;;;;;5105880;28;20031;-61
2022/04/20 15:15:19;;;;;;;5.53;4.57;;;;;;;;;;5110980;28;20100;-62
2022/04/20 15:17:45;;;;;;;6.45;4.30;;;;;;;;;;5108862;28;20039;-62
2022/04/20 15:20:11;;;;;;;6.25;4.32;;;;;;;;;;5113723;28;20048;-62
2022/04/20 15:22:37;;;;;;;6.68;4.53;;;;;;;;;;5110801;27;20114;-61
2022/04/20 15:25:03;;;;;;;7.95;4.88;;;;;;;;;;5114702;28;20039;-62
2022/04/20 15:27:29;;;;;;;6.85;4.15;;;;;;;;;;5113919;28;20039;-62
2022/04/20 15:29:55;;;;;;;7.57;4.20;;;;;;;;;;5110095;28;20043;-62